sensor_id;sensor_type;location;lat;lon;timestamp;P1;durP1;ratioP1;P2;durP2;ratioP2
53269;SDS011;39159;45.634;9.420;2023-03-29T00:01:23;4.07;;;1.80;;
53269;SDS011;39159;45.634;9.420;2023-03-29T00:03:49;4.05;;;2.00;;
53269;SDS011;39159;45.634;9.420;2023-03-29T00:06:15;2.45;;;1.52;;
53269;SDS011;39159;45.634;9.420;2023-03-29T00:08:46;3.40;;;1.60;;
53269;SDS011;39159;45.634;9.420;2023-03-29T00:11:15;3.90;;;1.60;;
53269;SDS011;39159;45.634;9.420;2023-03-29T00:13:41;4.05;;;1.73;;
53269;SDS011;39159;45.634;9.420;2023-03-29T00:16:07;6.45;;;1.98;;
53269;SDS011;39159;45.634;9.420;2023-03-29T00:18:33;3.90;;;1.80;;
53269;SDS011;39159;45.634;9.420;2023-03-29T00:20:58;2.53;;;1.83;;
53269;SDS011;39159;45.634;9.420;2023-03-29T00:23:24;2.90;;;1.77;;
53269;SDS011;39159;45.634;9.420;2023-03-29T00:25:51;2.83;;;1.80;;
53269;SDS011;39159;45.634;9.420;2023-03-29T00:28:18;3.63;;;1.58;;
53269;SDS011;39159;45.634;9.420;2023-03-29T00:30:43;2.20;;;1.50;;
53269;SDS011;39159;45.634;9.420;2023-03-29T00:33:09;2.85;;;1.58;;
53269;SDS011;39159;45.634;9.420;2023-03-29T00:35:36;3.45;;;1.60;;
53269;SDS011;39159;45.634;9.420;2023-03-29T00:38:03;1.70;;;1.50;;
53269;SDS011;39159;45.634;9.420;2023-03-29T00:40:30;4.40;;;1.70;;
53269;SDS011;39159;45.634;9.420;2023-03-29T00:42:56;3.28;;;1.45;;
53269;SDS011;39159;45.634;9.420;2023-03-29T00:45:26;3.70;;;1.60;;
53269;SDS011;39159;45.634;9.420;2023-03-29T00:50:36;5.22;;;2.22;;
53269;SDS011;39159;45.634;9.420;2023-03-29T00:58:27;2.15;;;1.17;;
53269;SDS011;39159;45.634;9.420;2023-03-29T01:01:08;3.60;;;1.63;;
53269;SDS011;39159;45.634;9.420;2023-03-29T01:03:41;2.30;;;1.40;;
53269;SDS011;39159;45.634;9.420;2023-03-29T01:06:14;2.75;;;1.60;;
53269;SDS011;39159;45.634;9.420;2023-03-29T01:08:48;3.10;;;1.58;;
53269;SDS011;39159;45.634;9.420;2023-03-29T01:11:18;4.18;;;1.50;;
53269;SDS011;39159;45.634;9.420;2023-03-29T01:16:37;3.17;;;1.40;;
53269;SDS011;39159;45.634;9.420;2023-03-29T01:19:04;2.80;;;1.60;;
53269;SDS011;39159;45.634;9.420;2023-03-29T01:21:38;2.90;;;1.40;;
53269;SDS011;39159;45.634;9.420;2023-03-29T01:24:42;3.58;;;1.80;;
53269;SDS011;39159;45.634;9.420;2023-03-29T01:27:48;3.13;;;1.63;;
53269;SDS011;39159;45.634;9.420;2023-03-29T01:30:32;3.72;;;1.80;;
53269;SDS011;39159;45.634;9.420;2023-03-29T01:33:11;2.47;;;1.50;;
53269;SDS011;39159;45.634;9.420;2023-03-29T01:35:50;3.70;;;1.80;;
53269;SDS011;39159;45.634;9.420;2023-03-29T01:38:35;2.47;;;1.70;;
53269;SDS011;39159;45.634;9.420;2023-03-29T01:41:03;2.78;;;1.70;;
53269;SDS011;39159;45.634;9.420;2023-03-29T01:46:20;5.10;;;1.80;;
53269;SDS011;39159;45.634;9.420;2023-03-29T01:48:55;3.45;;;1.80;;
53269;SDS011;39159;45.634;9.420;2023-03-29T01:51:24;3.55;;;1.70;;
53269;SDS011;39159;45.634;9.420;2023-03-29T01:54:14;3.33;;;1.63;;
53269;SDS011;39159;45.634;9.420;2023-03-29T01:56:44;4.85;;;1.80;;
53269;SDS011;39159;45.634;9.420;2023-03-29T01:59:16;3.55;;;1.85;;
53269;SDS011;39159;45.634;9.420;2023-03-29T02:01:53;4.63;;;1.88;;
53269;SDS011;39159;45.634;9.420;2023-03-29T02:04:29;3.17;;;1.83;;
53269;SDS011;39159;45.634;9.420;2023-03-29T02:06:58;3.75;;;2.30;;
53269;SDS011;39159;45.634;9.420;2023-03-29T02:09:27;5.72;;;2.00;;
53269;SDS011;39159;45.634;9.420;2023-03-29T02:11:55;3.38;;;1.90;;
53269;SDS011;39159;45.634;9.420;2023-03-29T02:14:24;3.38;;;1.67;;
53269;SDS011;39159;45.634;9.420;2023-03-29T02:16:50;4.13;;;1.95;;
53269;SDS011;39159;45.634;9.420;2023-03-29T02:19:15;3.65;;;1.80;;
53269;SDS011;39159;45.634;9.420;2023-03-29T02:24:17;4.22;;;2.00;;
53269;SDS011;39159;45.634;9.420;2023-03-29T02:26:46;3.33;;;1.67;;
53269;SDS011;39159;45.634;9.420;2023-03-29T02:29:12;4.60;;;1.95;;
53269;SDS011;39159;45.634;9.420;2023-03-29T02:31:42;3.47;;;1.75;;
53269;SDS011;39159;45.634;9.420;2023-03-29T02:36:59;3.92;;;1.90;;
53269;SDS011;39159;45.634;9.420;2023-03-29T02:39:31;6.70;;;2.05;;
53269;SDS011;39159;45.634;9.420;2023-03-29T02:41:58;2.95;;;1.70;;
53269;SDS011;39159;45.634;9.420;2023-03-29T02:44:26;3.08;;;1.60;;
53269;SDS011;39159;45.634;9.420;2023-03-29T02:46:55;4.55;;;1.80;;
53269;SDS011;39159;45.634;9.420;2023-03-29T02:49:24;4.03;;;1.70;;
53269;SDS011;39159;45.634;9.420;2023-03-29T02:51:50;2.72;;;1.60;;
53269;SDS011;39159;45.634;9.420;2023-03-29T02:54:20;2.53;;;1.40;;
53269;SDS011;39159;45.634;9.420;2023-03-29T02:56:57;4.03;;;1.35;;
53269;SDS011;39159;45.634;9.420;2023-03-29T02:59:24;3.28;;;1.45;;
53269;SDS011;39159;45.634;9.420;2023-03-29T03:01:51;3.65;;;1.63;;
53269;SDS011;39159;45.634;9.420;2023-03-29T03:04:17;2.22;;;1.38;;
53269;SDS011;39159;45.634;9.420;2023-03-29T03:06:44;5.95;;;1.70;;
53269;SDS011;39159;45.634;9.420;2023-03-29T03:09:10;4.18;;;1.73;;
53269;SDS011;39159;45.634;9.420;2023-03-29T03:11:36;2.17;;;1.35;;
53269;SDS011;39159;45.634;9.420;2023-03-29T03:14:02;4.03;;;1.60;;
53269;SDS011;39159;45.634;9.420;2023-03-29T03:16:27;2.88;;;1.20;;
53269;SDS011;39159;45.634;9.420;2023-03-29T03:18:53;2.83;;;1.33;;
53269;SDS011;39159;45.634;9.420;2023-03-29T03:21:19;2.63;;;1.40;;
53269;SDS011;39159;45.634;9.420;2023-03-29T03:23:45;2.30;;;1.40;;
53269;SDS011;39159;45.634;9.420;2023-03-29T03:26:12;4.15;;;1.75;;
53269;SDS011;39159;45.634;9.420;2023-03-29T03:28:37;3.28;;;1.38;;
53269;SDS011;39159;45.634;9.420;2023-03-29T03:31:04;1.92;;;1.50;;
53269;SDS011;39159;45.634;9.420;2023-03-29T03:33:29;2.53;;;1.50;;
53269;SDS011;39159;45.634;9.420;2023-03-29T03:35:55;3.38;;;1.60;;
53269;SDS011;39159;45.634;9.420;2023-03-29T03:38:28;2.75;;;1.48;;
53269;SDS011;39159;45.634;9.420;2023-03-29T03:40:55;3.53;;;1.50;;
53269;SDS011;39159;45.634;9.420;2023-03-29T03:43:21;2.42;;;1.38;;
53269;SDS011;39159;45.634;9.420;2023-03-29T03:45:47;3.78;;;1.42;;
53269;SDS011;39159;45.634;9.420;2023-03-29T03:48:12;2.83;;;1.30;;
53269;SDS011;39159;45.634;9.420;2023-03-29T03:50:38;3.90;;;1.40;;
53269;SDS011;39159;45.634;9.420;2023-03-29T03:53:04;4.22;;;1.50;;
53269;SDS011;39159;45.634;9.420;2023-03-29T03:55:31;2.70;;;1.23;;
53269;SDS011;39159;45.634;9.420;2023-03-29T03:57:57;7.47;;;1.80;;
53269;SDS011;39159;45.634;9.420;2023-03-29T04:00:23;4.00;;;1.80;;
53269;SDS011;39159;45.634;9.420;2023-03-29T04:02:49;3.03;;;1.48;;
53269;SDS011;39159;45.634;9.420;2023-03-29T04:05:18;3.70;;;1.65;;
53269;SDS011;39159;45.634;9.420;2023-03-29T04:07:44;3.10;;;1.80;;
53269;SDS011;39159;45.634;9.420;2023-03-29T04:10:10;2.95;;;1.48;;
53269;SDS011;39159;45.634;9.420;2023-03-29T04:12:35;4.75;;;1.73;;
53269;SDS011;39159;45.634;9.420;2023-03-29T04:15:02;5.65;;;2.22;;
53269;SDS011;39159;45.634;9.420;2023-03-29T04:17:29;3.72;;;1.60;;
53269;SDS011;39159;45.634;9.420;2023-03-29T04:19:54;2.75;;;1.88;;
53269;SDS011;39159;45.634;9.420;2023-03-29T04:22:21;5.22;;;1.77;;
53269;SDS011;39159;45.634;9.420;2023-03-29T04:24:49;3.20;;;1.65;;
53269;SDS011;39159;45.634;9.420;2023-03-29T04:27:15;4.38;;;2.00;;
53269;SDS011;39159;45.634;9.420;2023-03-29T04:29:40;4.53;;;2.42;;
53269;SDS011;39159;45.634;9.420;2023-03-29T04:32:08;3.83;;;1.85;;
53269;SDS011;39159;45.634;9.420;2023-03-29T04:34:34;3.40;;;2.10;;
53269;SDS011;39159;45.634;9.420;2023-03-29T04:37:00;5.95;;;2.08;;
53269;SDS011;39159;45.634;9.420;2023-03-29T04:39:26;5.78;;;1.90;;
53269;SDS011;39159;45.634;9.420;2023-03-29T04:41:57;5.63;;;2.00;;
53269;SDS011;39159;45.634;9.420;2023-03-29T04:44:24;3.47;;;1.98;;
53269;SDS011;39159;45.634;9.420;2023-03-29T04:46:50;6.72;;;1.85;;
53269;SDS011;39159;45.634;9.420;2023-03-29T04:49:16;4.78;;;1.70;;
53269;SDS011;39159;45.634;9.420;2023-03-29T04:51:42;3.33;;;1.80;;
53269;SDS011;39159;45.634;9.420;2023-03-29T04:54:08;6.13;;;2.10;;
53269;SDS011;39159;45.634;9.420;2023-03-29T04:56:33;4.50;;;2.10;;
53269;SDS011;39159;45.634;9.420;2023-03-29T04:58:59;3.95;;;1.67;;
53269;SDS011;39159;45.634;9.420;2023-03-29T05:01:24;6.30;;;1.88;;
53269;SDS011;39159;45.634;9.420;2023-03-29T05:03:50;4.72;;;2.20;;
53269;SDS011;39159;45.634;9.420;2023-03-29T05:06:16;5.40;;;2.50;;
53269;SDS011;39159;45.634;9.420;2023-03-29T05:08:41;2.47;;;1.52;;
53269;SDS011;39159;45.634;9.420;2023-03-29T05:11:08;4.90;;;2.10;;
53269;SDS011;39159;45.634;9.420;2023-03-29T05:13:35;3.10;;;1.60;;
53269;SDS011;39159;45.634;9.420;2023-03-29T05:16:01;4.25;;;2.17;;
53269;SDS011;39159;45.634;9.420;2023-03-29T05:18:28;5.60;;;2.60;;
53269;SDS011;39159;45.634;9.420;2023-03-29T05:20:56;4.53;;;2.45;;
53269;SDS011;39159;45.634;9.420;2023-03-29T05:23:22;7.15;;;2.05;;
53269;SDS011;39159;45.634;9.420;2023-03-29T05:25:48;3.63;;;2.10;;
53269;SDS011;39159;45.634;9.420;2023-03-29T05:28:14;7.13;;;1.90;;
53269;SDS011;39159;45.634;9.420;2023-03-29T05:30:40;5.03;;;2.00;;
53269;SDS011;39159;45.634;9.420;2023-03-29T05:33:06;6.45;;;2.10;;
53269;SDS011;39159;45.634;9.420;2023-03-29T05:35:32;6.07;;;2.83;;
53269;SDS011;39159;45.634;9.420;2023-03-29T05:37:59;4.63;;;2.00;;
53269;SDS011;39159;45.634;9.420;2023-03-29T05:40:25;3.60;;;1.80;;
53269;SDS011;39159;45.634;9.420;2023-03-29T05:42:51;4.60;;;2.10;;
53269;SDS011;39159;45.634;9.420;2023-03-29T05:45:17;6.43;;;2.50;;
53269;SDS011;39159;45.634;9.420;2023-03-29T05:47:44;5.35;;;2.20;;
53269;SDS011;39159;45.634;9.420;2023-03-29T05:50:10;7.18;;;2.40;;
53269;SDS011;39159;45.634;9.420;2023-03-29T05:52:36;5.05;;;2.30;;
53269;SDS011;39159;45.634;9.420;2023-03-29T05:55:03;4.85;;;2.33;;
53269;SDS011;39159;45.634;9.420;2023-03-29T05:57:29;6.30;;;2.22;;
53269;SDS011;39159;45.634;9.420;2023-03-29T05:59:54;5.10;;;2.50;;
53269;SDS011;39159;45.634;9.420;2023-03-29T06:02:20;3.63;;;2.00;;
53269;SDS011;39159;45.634;9.420;2023-03-29T06:04:46;4.95;;;2.40;;
53269;SDS011;39159;45.634;9.420;2023-03-29T06:07:12;3.92;;;2.05;;
53269;SDS011;39159;45.634;9.420;2023-03-29T06:09:39;5.65;;;2.28;;
53269;SDS011;39159;45.634;9.420;2023-03-29T06:12:05;5.30;;;2.20;;
53269;SDS011;39159;45.634;9.420;2023-03-29T06:14:31;6.03;;;2.65;;
53269;SDS011;39159;45.634;9.420;2023-03-29T06:16:57;4.72;;;2.10;;
53269;SDS011;39159;45.634;9.420;2023-03-29T06:19:24;4.72;;;2.67;;
53269;SDS011;39159;45.634;9.420;2023-03-29T06:21:49;6.55;;;2.63;;
53269;SDS011;39159;45.634;9.420;2023-03-29T06:24:17;4.47;;;2.15;;
53269;SDS011;39159;45.634;9.420;2023-03-29T06:26:43;3.15;;;2.28;;
53269;SDS011;39159;45.634;9.420;2023-03-29T06:29:09;4.85;;;2.42;;
53269;SDS011;39159;45.634;9.420;2023-03-29T06:31:34;6.93;;;2.65;;
53269;SDS011;39159;45.634;9.420;2023-03-29T06:34:00;5.45;;;2.70;;
53269;SDS011;39159;45.634;9.420;2023-03-29T06:36:26;5.72;;;2.80;;
53269;SDS011;39159;45.634;9.420;2023-03-29T06:38:52;4.32;;;2.60;;
53269;SDS011;39159;45.634;9.420;2023-03-29T06:41:18;8.82;;;2.90;;
53269;SDS011;39159;45.634;9.420;2023-03-29T06:43:43;4.85;;;2.70;;
53269;SDS011;39159;45.634;9.420;2023-03-29T06:46:09;3.72;;;2.17;;
53269;SDS011;39159;45.634;9.420;2023-03-29T06:48:36;5.63;;;2.35;;
53269;SDS011;39159;45.634;9.420;2023-03-29T06:51:03;4.35;;;2.50;;
53269;SDS011;39159;45.634;9.420;2023-03-29T06:53:29;5.78;;;2.20;;
53269;SDS011;39159;45.634;9.420;2023-03-29T06:55:55;5.03;;;2.75;;
53269;SDS011;39159;45.634;9.420;2023-03-29T06:58:20;4.13;;;2.20;;
53269;SDS011;39159;45.634;9.420;2023-03-29T07:00:46;6.35;;;2.60;;
53269;SDS011;39159;45.634;9.420;2023-03-29T07:03:12;7.28;;;2.30;;
53269;SDS011;39159;45.634;9.420;2023-03-29T07:05:44;3.88;;;2.33;;
53269;SDS011;39159;45.634;9.420;2023-03-29T07:08:14;7.03;;;2.10;;
53269;SDS011;39159;45.634;9.420;2023-03-29T07:10:41;6.68;;;3.03;;
53269;SDS011;39159;45.634;9.420;2023-03-29T07:13:10;5.30;;;2.42;;
53269;SDS011;39159;45.634;9.420;2023-03-29T07:15:39;4.43;;;1.83;;
53269;SDS011;39159;45.634;9.420;2023-03-29T07:18:06;5.00;;;2.17;;
53269;SDS011;39159;45.634;9.420;2023-03-29T07:20:33;6.20;;;2.00;;
53269;SDS011;39159;45.634;9.420;2023-03-29T07:22:59;5.60;;;2.00;;
53269;SDS011;39159;45.634;9.420;2023-03-29T07:25:25;3.25;;;1.70;;
53269;SDS011;39159;45.634;9.420;2023-03-29T07:27:51;3.53;;;1.50;;
53269;SDS011;39159;45.634;9.420;2023-03-29T07:30:21;3.67;;;1.60;;
53269;SDS011;39159;45.634;9.420;2023-03-29T07:32:49;3.95;;;1.73;;
53269;SDS011;39159;45.634;9.420;2023-03-29T07:35:16;6.47;;;2.20;;
53269;SDS011;39159;45.634;9.420;2023-03-29T07:37:42;5.40;;;1.80;;
53269;SDS011;39159;45.634;9.420;2023-03-29T07:40:13;3.22;;;1.70;;
53269;SDS011;39159;45.634;9.420;2023-03-29T07:42:42;3.70;;;2.13;;
53269;SDS011;39159;45.634;9.420;2023-03-29T07:45:09;4.38;;;1.40;;
53269;SDS011;39159;45.634;9.420;2023-03-29T07:47:38;3.38;;;1.70;;
53269;SDS011;39159;45.634;9.420;2023-03-29T07:50:04;3.78;;;1.65;;
53269;SDS011;39159;45.634;9.420;2023-03-29T07:52:31;4.45;;;1.73;;
53269;SDS011;39159;45.634;9.420;2023-03-29T07:54:57;6.10;;;1.77;;
53269;SDS011;39159;45.634;9.420;2023-03-29T07:57:23;6.53;;;1.75;;
53269;SDS011;39159;45.634;9.420;2023-03-29T07:59:50;5.93;;;1.88;;
53269;SDS011;39159;45.634;9.420;2023-03-29T08:02:17;5.82;;;1.75;;
53269;SDS011;39159;45.634;9.420;2023-03-29T08:04:43;6.50;;;1.98;;
53269;SDS011;39159;45.634;9.420;2023-03-29T08:07:09;4.65;;;1.67;;
53269;SDS011;39159;45.634;9.420;2023-03-29T08:09:34;4.57;;;1.60;;
53269;SDS011;39159;45.634;9.420;2023-03-29T08:12:01;3.65;;;1.40;;
53269;SDS011;39159;45.634;9.420;2023-03-29T08:14:26;4.43;;;1.50;;
53269;SDS011;39159;45.634;9.420;2023-03-29T08:16:52;3.70;;;1.60;;
53269;SDS011;39159;45.634;9.420;2023-03-29T08:19:18;7.90;;;2.15;;
53269;SDS011;39159;45.634;9.420;2023-03-29T08:21:45;7.25;;;2.00;;
53269;SDS011;39159;45.634;9.420;2023-03-29T08:24:12;2.92;;;1.60;;
53269;SDS011;39159;45.634;9.420;2023-03-29T08:26:38;5.85;;;1.67;;
53269;SDS011;39159;45.634;9.420;2023-03-29T08:29:03;4.30;;;1.27;;
53269;SDS011;39159;45.634;9.420;2023-03-29T08:31:29;9.25;;;1.80;;
53269;SDS011;39159;45.634;9.420;2023-03-29T08:33:55;4.07;;;1.70;;
53269;SDS011;39159;45.634;9.420;2023-03-29T08:36:20;3.30;;;1.38;;
53269;SDS011;39159;45.634;9.420;2023-03-29T08:38:46;7.50;;;1.67;;
53269;SDS011;39159;45.634;9.420;2023-03-29T08:41:26;5.82;;;1.60;;
53269;SDS011;39159;45.634;9.420;2023-03-29T08:45:03;4.15;;;1.52;;
53269;SDS011;39159;45.634;9.420;2023-03-29T08:49:50;6.70;;;1.80;;
53269;SDS011;39159;45.634;9.420;2023-03-29T08:54:55;3.42;;;1.70;;
53269;SDS011;39159;45.634;9.420;2023-03-29T09:00:03;12.68;;;1.90;;
53269;SDS011;39159;45.634;9.420;2023-03-29T09:02:32;6.32;;;1.90;;
53269;SDS011;39159;45.634;9.420;2023-03-29T09:07:59;4.57;;;1.95;;
53269;SDS011;39159;45.634;9.420;2023-03-29T09:11:30;3.15;;;2.33;;
53269;SDS011;39159;45.634;9.420;2023-03-29T09:13:44;4.63;;;2.30;;
53269;SDS011;39159;45.634;9.420;2023-03-29T09:19:18;8.02;;;2.03;;
53269;SDS011;39159;45.634;9.420;2023-03-29T09:21:49;9.13;;;2.42;;
53269;SDS011;39159;45.634;9.420;2023-03-29T09:27:07;14.55;;;2.13;;
53269;SDS011;39159;45.634;9.420;2023-03-29T09:32:21;7.20;;;2.08;;
53269;SDS011;39159;45.634;9.420;2023-03-29T09:34:53;5.70;;;2.10;;
53269;SDS011;39159;45.634;9.420;2023-03-29T09:37:32;5.95;;;1.90;;
53269;SDS011;39159;45.634;9.420;2023-03-29T09:40:01;8.52;;;2.05;;
53269;SDS011;39159;45.634;9.420;2023-03-29T09:42:30;4.72;;;1.73;;
53269;SDS011;39159;45.634;9.420;2023-03-29T09:45:02;7.80;;;2.03;;
53269;SDS011;39159;45.634;9.420;2023-03-29T09:48:17;11.40;;;2.60;;
53269;SDS011;39159;45.634;9.420;2023-03-29T09:50:25;7.55;;;1.98;;
53269;SDS011;39159;45.634;9.420;2023-03-29T09:52:56;6.40;;;2.17;;
53269;SDS011;39159;45.634;9.420;2023-03-29T09:55:25;4.80;;;1.92;;
53269;SDS011;39159;45.634;9.420;2023-03-29T09:57:54;5.57;;;1.70;;
53269;SDS011;39159;45.634;9.420;2023-03-29T10:00:22;8.05;;;2.20;;
53269;SDS011;39159;45.634;9.420;2023-03-29T10:02:49;9.93;;;2.80;;
53269;SDS011;39159;45.634;9.420;2023-03-29T10:05:23;6.45;;;2.35;;
53269;SDS011;39159;45.634;9.420;2023-03-29T10:07:50;11.43;;;2.20;;
53269;SDS011;39159;45.634;9.420;2023-03-29T10:10:22;8.88;;;2.30;;
53269;SDS011;39159;45.634;9.420;2023-03-29T10:12:53;3.90;;;1.75;;
53269;SDS011;39159;45.634;9.420;2023-03-29T10:15:25;6.40;;;2.35;;
53269;SDS011;39159;45.634;9.420;2023-03-29T10:17:57;6.03;;;2.38;;
53269;SDS011;39159;45.634;9.420;2023-03-29T10:20:25;21.30;;;3.30;;
53269;SDS011;39159;45.634;9.420;2023-03-29T10:22:55;5.32;;;2.40;;
53269;SDS011;39159;45.634;9.420;2023-03-29T10:25:29;5.80;;;1.90;;
53269;SDS011;39159;45.634;9.420;2023-03-29T10:28:17;5.95;;;2.63;;
53269;SDS011;39159;45.634;9.420;2023-03-29T10:30:46;13.18;;;2.95;;
53269;SDS011;39159;45.634;9.420;2023-03-29T10:33:18;7.88;;;2.75;;
53269;SDS011;39159;45.634;9.420;2023-03-29T10:35:48;7.35;;;2.58;;
53269;SDS011;39159;45.634;9.420;2023-03-29T10:38:18;7.72;;;2.08;;
53269;SDS011;39159;45.634;9.420;2023-03-29T10:40:50;9.57;;;3.05;;
53269;SDS011;39159;45.634;9.420;2023-03-29T10:43:21;7.05;;;2.70;;
53269;SDS011;39159;45.634;9.420;2023-03-29T10:45:54;8.07;;;3.35;;
53269;SDS011;39159;45.634;9.420;2023-03-29T10:48:27;6.70;;;2.40;;
53269;SDS011;39159;45.634;9.420;2023-03-29T10:50:56;3.63;;;1.90;;
53269;SDS011;39159;45.634;9.420;2023-03-29T10:53:25;4.07;;;2.10;;
53269;SDS011;39159;45.634;9.420;2023-03-29T11:07:13;8.65;;;2.40;;
53269;SDS011;39159;45.634;9.420;2023-03-29T11:13:12;5.10;;;2.00;;
53269;SDS011;39159;45.634;9.420;2023-03-29T11:29:39;7.75;;;2.42;;
53269;SDS011;39159;45.634;9.420;2023-03-29T11:32:17;5.22;;;2.20;;
53269;SDS011;39159;45.634;9.420;2023-03-29T11:38:04;7.70;;;2.35;;
53269;SDS011;39159;45.634;9.420;2023-03-29T11:43:23;6.50;;;2.45;;
53269;SDS011;39159;45.634;9.420;2023-03-29T11:45:52;7.03;;;2.63;;
53269;SDS011;39159;45.634;9.420;2023-03-29T11:48:26;15.07;;;2.90;;
53269;SDS011;39159;45.634;9.420;2023-03-29T11:51:16;9.43;;;2.53;;
53269;SDS011;39159;45.634;9.420;2023-03-29T11:54:02;5.65;;;2.17;;
53269;SDS011;39159;45.634;9.420;2023-03-29T11:56:59;5.72;;;2.20;;
53269;SDS011;39159;45.634;9.420;2023-03-29T11:59:36;5.80;;;2.20;;
53269;SDS011;39159;45.634;9.420;2023-03-29T12:02:28;8.10;;;2.25;;
53269;SDS011;39159;45.634;9.420;2023-03-29T12:07:59;7.15;;;2.20;;
53269;SDS011;39159;45.634;9.420;2023-03-29T12:10:36;4.05;;;1.98;;
53269;SDS011;39159;45.634;9.420;2023-03-29T12:13:19;4.63;;;1.83;;
53269;SDS011;39159;45.634;9.420;2023-03-29T12:15:51;4.53;;;2.00;;
53269;SDS011;39159;45.634;9.420;2023-03-29T12:18:24;5.65;;;1.90;;
53269;SDS011;39159;45.634;9.420;2023-03-29T12:20:58;4.10;;;1.85;;
53269;SDS011;39159;45.634;9.420;2023-03-29T12:23:28;5.63;;;2.17;;
53269;SDS011;39159;45.634;9.420;2023-03-29T12:31:32;4.95;;;2.10;;
53269;SDS011;39159;45.634;9.420;2023-03-29T12:39:27;8.85;;;2.10;;
53269;SDS011;39159;45.634;9.420;2023-03-29T12:44:50;8.25;;;2.70;;
53269;SDS011;39159;45.634;9.420;2023-03-29T12:47:23;3.28;;;2.10;;
53269;SDS011;39159;45.634;9.420;2023-03-29T12:49:55;10.75;;;2.42;;
53269;SDS011;39159;45.634;9.420;2023-03-29T12:52:24;5.57;;;2.60;;
53269;SDS011;39159;45.634;9.420;2023-03-29T12:54:58;6.85;;;2.80;;
53269;SDS011;39159;45.634;9.420;2023-03-29T12:57:38;7.55;;;2.20;;
53269;SDS011;39159;45.634;9.420;2023-03-29T13:00:09;4.35;;;2.10;;
53269;SDS011;39159;45.634;9.420;2023-03-29T13:02:57;7.75;;;2.30;;
53269;SDS011;39159;45.634;9.420;2023-03-29T13:05:29;5.17;;;2.10;;
53269;SDS011;39159;45.634;9.420;2023-03-29T13:07:58;8.70;;;2.40;;
53269;SDS011;39159;45.634;9.420;2023-03-29T13:10:33;8.05;;;2.25;;
53269;SDS011;39159;45.634;9.420;2023-03-29T13:13:16;5.35;;;2.35;;
53269;SDS011;39159;45.634;9.420;2023-03-29T13:15:45;7.80;;;2.35;;
53269;SDS011;39159;45.634;9.420;2023-03-29T13:23:52;5.53;;;1.98;;
53269;SDS011;39159;45.634;9.420;2023-03-29T13:39:46;5.40;;;2.38;;
53269;SDS011;39159;45.634;9.420;2023-03-29T13:42:24;7.88;;;2.63;;
53269;SDS011;39159;45.634;9.420;2023-03-29T13:45:21;6.78;;;2.80;;
53269;SDS011;39159;45.634;9.420;2023-03-29T13:47:59;7.60;;;3.22;;
53269;SDS011;39159;45.634;9.420;2023-03-29T13:51:18;6.75;;;2.53;;
53269;SDS011;39159;45.634;9.420;2023-03-29T13:56:01;7.07;;;2.55;;
53269;SDS011;39159;45.634;9.420;2023-03-29T14:01:10;7.82;;;3.00;;
53269;SDS011;39159;45.634;9.420;2023-03-29T14:03:44;11.77;;;2.63;;
53269;SDS011;39159;45.634;9.420;2023-03-29T14:06:13;3.58;;;2.50;;
53269;SDS011;39159;45.634;9.420;2023-03-29T14:08:42;8.00;;;2.40;;
53269;SDS011;39159;45.634;9.420;2023-03-29T14:11:29;9.13;;;2.17;;
53269;SDS011;39159;45.634;9.420;2023-03-29T14:13:58;6.25;;;2.35;;
53269;SDS011;39159;45.634;9.420;2023-03-29T14:16:27;10.95;;;3.10;;
53269;SDS011;39159;45.634;9.420;2023-03-29T14:18:59;5.95;;;2.60;;
53269;SDS011;39159;45.634;9.420;2023-03-29T14:21:28;8.23;;;2.80;;
53269;SDS011;39159;45.634;9.420;2023-03-29T14:23:56;6.82;;;2.63;;
53269;SDS011;39159;45.634;9.420;2023-03-29T14:26:28;8.18;;;2.97;;
53269;SDS011;39159;45.634;9.420;2023-03-29T14:28:59;10.95;;;2.88;;
53269;SDS011;39159;45.634;9.420;2023-03-29T14:33:55;5.93;;;2.70;;
53269;SDS011;39159;45.634;9.420;2023-03-29T14:36:23;7.53;;;2.70;;
53269;SDS011;39159;45.634;9.420;2023-03-29T14:38:57;8.55;;;2.75;;
53269;SDS011;39159;45.634;9.420;2023-03-29T14:41:30;11.57;;;2.60;;
53269;SDS011;39159;45.634;9.420;2023-03-29T14:43:58;7.27;;;2.10;;
53269;SDS011;39159;45.634;9.420;2023-03-29T14:46:25;6.10;;;2.47;;
53269;SDS011;39159;45.634;9.420;2023-03-29T14:48:51;9.70;;;2.50;;
53269;SDS011;39159;45.634;9.420;2023-03-29T14:51:17;5.35;;;2.03;;
53269;SDS011;39159;45.634;9.420;2023-03-29T14:53:44;10.57;;;3.17;;
53269;SDS011;39159;45.634;9.420;2023-03-29T14:56:11;6.97;;;2.40;;
53269;SDS011;39159;45.634;9.420;2023-03-29T14:58:42;5.35;;;2.20;;
53269;SDS011;39159;45.634;9.420;2023-03-29T15:01:13;5.35;;;2.20;;
53269;SDS011;39159;45.634;9.420;2023-03-29T15:03:43;6.80;;;2.45;;
53269;SDS011;39159;45.634;9.420;2023-03-29T15:06:13;7.95;;;2.63;;
53269;SDS011;39159;45.634;9.420;2023-03-29T15:08:40;9.43;;;2.95;;
53269;SDS011;39159;45.634;9.420;2023-03-29T15:11:15;8.13;;;2.65;;
53269;SDS011;39159;45.634;9.420;2023-03-29T15:13:52;11.35;;;2.90;;
53269;SDS011;39159;45.634;9.420;2023-03-29T15:16:26;8.63;;;2.92;;
53269;SDS011;39159;45.634;9.420;2023-03-29T15:18:54;12.00;;;2.72;;
53269;SDS011;39159;45.634;9.420;2023-03-29T15:21:21;5.90;;;2.42;;
53269;SDS011;39159;45.634;9.420;2023-03-29T15:23:54;7.82;;;2.80;;
53269;SDS011;39159;45.634;9.420;2023-03-29T15:26:29;9.60;;;2.63;;
53269;SDS011;39159;45.634;9.420;2023-03-29T15:31:40;9.50;;;2.63;;
53269;SDS011;39159;45.634;9.420;2023-03-29T15:36:31;8.13;;;2.70;;
53269;SDS011;39159;45.634;9.420;2023-03-29T15:38:58;8.82;;;2.97;;
53269;SDS011;39159;45.634;9.420;2023-03-29T15:41:23;7.43;;;2.60;;
53269;SDS011;39159;45.634;9.420;2023-03-29T15:43:51;5.95;;;2.13;;
53269;SDS011;39159;45.634;9.420;2023-03-29T15:46:16;6.50;;;2.55;;
53269;SDS011;39159;45.634;9.420;2023-03-29T15:48:42;5.78;;;2.20;;
53269;SDS011;39159;45.634;9.420;2023-03-29T15:51:08;14.10;;;2.35;;
53269;SDS011;39159;45.634;9.420;2023-03-29T15:53:36;8.15;;;2.00;;
53269;SDS011;39159;45.634;9.420;2023-03-29T15:56:02;10.60;;;2.42;;
53269;SDS011;39159;45.634;9.420;2023-03-29T15:58:31;6.47;;;1.95;;
53269;SDS011;39159;45.634;9.420;2023-03-29T16:01:01;6.57;;;1.88;;
53269;SDS011;39159;45.634;9.420;2023-03-29T16:03:38;10.95;;;2.65;;
53269;SDS011;39159;45.634;9.420;2023-03-29T16:06:03;4.85;;;1.80;;
53269;SDS011;39159;45.634;9.420;2023-03-29T16:08:30;18.95;;;2.72;;
53269;SDS011;39159;45.634;9.420;2023-03-29T16:10:55;6.20;;;1.90;;
53269;SDS011;39159;45.634;9.420;2023-03-29T16:13:21;10.07;;;2.65;;
53269;SDS011;39159;45.634;9.420;2023-03-29T16:15:46;9.52;;;2.15;;
53269;SDS011;39159;45.634;9.420;2023-03-29T16:18:12;7.55;;;2.08;;
53269;SDS011;39159;45.634;9.420;2023-03-29T16:20:38;8.05;;;2.08;;
53269;SDS011;39159;45.634;9.420;2023-03-29T16:23:06;9.27;;;2.10;;
53269;SDS011;39159;45.634;9.420;2023-03-29T16:25:36;8.05;;;2.30;;
53269;SDS011;39159;45.634;9.420;2023-03-29T16:28:04;9.55;;;1.95;;
53269;SDS011;39159;45.634;9.420;2023-03-29T16:30:32;3.95;;;1.88;;
53269;SDS011;39159;45.634;9.420;2023-03-29T16:32:58;7.25;;;1.90;;
53269;SDS011;39159;45.634;9.420;2023-03-29T16:35:28;6.63;;;2.20;;
53269;SDS011;39159;45.634;9.420;2023-03-29T16:37:56;4.20;;;2.13;;
53269;SDS011;39159;45.634;9.420;2023-03-29T16:40:21;8.77;;;2.00;;
53269;SDS011;39159;45.634;9.420;2023-03-29T16:42:48;6.10;;;2.00;;
53269;SDS011;39159;45.634;9.420;2023-03-29T16:45:14;7.00;;;2.00;;
53269;SDS011;39159;45.634;9.420;2023-03-29T16:47:39;5.43;;;2.17;;
53269;SDS011;39159;45.634;9.420;2023-03-29T16:50:12;7.07;;;2.17;;
53269;SDS011;39159;45.634;9.420;2023-03-29T16:52:39;6.20;;;1.55;;
53269;SDS011;39159;45.634;9.420;2023-03-29T16:55:05;10.48;;;2.20;;
53269;SDS011;39159;45.634;9.420;2023-03-29T16:57:32;4.85;;;1.77;;
53269;SDS011;39159;45.634;9.420;2023-03-29T16:59:57;6.75;;;2.05;;
53269;SDS011;39159;45.634;9.420;2023-03-29T17:02:23;15.15;;;2.40;;
53269;SDS011;39159;45.634;9.420;2023-03-29T17:04:49;6.05;;;2.20;;